Main page
METAR-TAF:

METAR-TAF

Airports :

London Biggin Hill Airport

London Biggin Hill, England

latitude: 51-19N, longitude: 000-02E, elevation: 183 m

Current weather observation

The report was made 12 minutes ago, at 06:20 UTC
Wind 8 kt from the South
Temperature 11°C
Humidity 94%
Pressure 1018 hPa
Visibility 10 km or more
Scattered clouds at a height of 2500 ft

METAR: EGKB 170620Z 18008KT 9999 SCT025 11/10 Q1018

Time: 07:32 (06:32 UTC)

Forecast

The report was made 9 minutes ago, at 06:23 UTC
Forecast valid from 17 at 06 UTC to 17 at 15 UTC
Wind 10 kt from the Southwest
Visibility 10 km or more
Scattered clouds at a height of 2000 ft
Becoming
from 17 at 11 UTC to 17 at 14 UTC
Wind 8 kt from the North
Broken clouds at a height of 800 ft
Probability 30% :
Temporary
from 17 at 14 UTC to 17 at 15 UTC
Visibility: 8000 m
Broken clouds at a height of 400 ft
light rain, drizzle

TAF: EGKB 170623Z 1706/1715 22010KT 9999 SCT020 BECMG 1711/1714 01008KT BKN008 PROB30 TEMPO 1714/1715 8000 -RADZ BKN004

Weather observations and forecasts of more than 4000 airports (METAR and TAF reports).

The available stations are represented by yellow and red dots on the map.

Hover mouse over dot to see the name of the station.

Then click to see weather observations and forecasts.

To change the map : click on the green buttons with a black cross to zoom in, on the green button with a dash to zoom out, or on the green arrows for adjacent maps.


METAR-TAF: